createdAt,value
2019-03-30T00:01:11.821Z,7.30
2019-03-30T00:03:40.254Z,7.30
2019-03-30T00:06:08.782Z,7.10
2019-03-30T00:08:37.265Z,7.10
2019-03-30T00:11:05.715Z,6.90
2019-03-30T00:13:34.209Z,6.90
2019-03-30T00:16:02.765Z,6.90
2019-03-30T00:18:31.195Z,6.90
2019-03-30T00:20:59.632Z,6.90
2019-03-30T00:23:28.095Z,6.90
2019-03-30T00:25:56.557Z,6.90
2019-03-30T00:28:24.988Z,7.00
2019-03-30T00:30:53.471Z,6.90
2019-03-30T00:33:21.938Z,6.90
2019-03-30T00:35:50.789Z,6.80
2019-03-30T00:38:19.237Z,6.80
2019-03-30T00:40:47.670Z,6.70
2019-03-30T00:43:16.116Z,6.70
2019-03-30T00:45:44.606Z,6.50
2019-03-30T00:48:13.041Z,6.50
2019-03-30T00:50:41.474Z,6.50
2019-03-30T00:53:09.954Z,6.50
2019-03-30T00:55:38.395Z,6.50
2019-03-30T00:58:07.103Z,6.50
2019-03-30T01:00:35.569Z,6.40
2019-03-30T01:03:04.005Z,6.40
2019-03-30T01:05:32.515Z,6.40
2019-03-30T01:08:00.962Z,6.40
2019-03-30T01:10:29.400Z,6.40
2019-03-30T01:12:57.826Z,6.50
2019-03-30T01:15:26.294Z,6.40
2019-03-30T01:17:54.735Z,6.40
2019-03-30T01:20:23.166Z,6.50
2019-03-30T01:22:51.898Z,6.50
2019-03-30T01:25:20.646Z,6.40
2019-03-30T01:27:49.078Z,6.40
2019-03-30T01:30:23.424Z,6.30
2019-03-30T01:32:47.764Z,6.20
2019-03-30T01:35:16.651Z,6.10
2019-03-30T01:37:45.268Z,6.00
2019-03-30T01:40:13.764Z,5.90
2019-03-30T01:42:42.198Z,5.80
2019-03-30T01:45:10.854Z,5.80
2019-03-30T01:47:39.293Z,5.80
2019-03-30T01:50:17.160Z,5.80
2019-03-30T01:52:39.762Z,5.70
2019-03-30T01:55:08.537Z,5.80
2019-03-30T01:57:36.968Z,5.80
2019-03-30T02:00:09.560Z,5.80
2019-03-30T02:02:38.592Z,5.80
2019-03-30T02:05:07.670Z,5.80
2019-03-30T02:07:36.302Z,5.80
2019-03-30T02:10:06.282Z,5.70
2019-03-30T02:12:34.714Z,5.70
2019-03-30T02:15:03.430Z,5.50
2019-03-30T02:17:32.143Z,5.40
2019-03-30T02:20:00.651Z,5.40
2019-03-30T02:22:29.361Z,5.30
2019-03-30T02:24:57.794Z,5.30
2019-03-30T02:27:26.231Z,5.10
2019-03-30T02:29:54.702Z,5.10
2019-03-30T02:32:23.140Z,5.10
2019-03-30T02:34:51.576Z,5.10
2019-03-30T02:37:20.175Z,5.00
2019-03-30T02:39:48.644Z,5.10
2019-03-30T02:42:17.080Z,5.10
2019-03-30T02:44:45.530Z,5.10
2019-03-30T02:47:13.968Z,5.10
2019-03-30T02:49:42.404Z,5.10
2019-03-30T02:52:10.984Z,5.10
2019-03-30T02:54:39.421Z,5.20
2019-03-30T02:57:07.849Z,5.10
2019-03-30T02:59:36.340Z,5.20
2019-03-30T03:02:04.851Z,5.10
2019-03-30T03:04:33.347Z,5.10
2019-03-30T03:07:02.183Z,5.10
2019-03-30T03:09:30.685Z,5.00
2019-03-30T03:11:59.388Z,5.00
2019-03-30T03:14:27.945Z,5.00
2019-03-30T03:16:56.545Z,5.00
2019-03-30T03:19:25.408Z,5.00
2019-03-30T03:21:53.952Z,5.00
2019-03-30T03:24:22.409Z,5.00
2019-03-30T03:26:51.282Z,5.10
2019-03-30T03:29:19.839Z,5.10
2019-03-30T03:31:48.271Z,5.00
2019-03-30T03:34:16.703Z,5.00
2019-03-30T03:36:45.247Z,4.90
2019-03-30T03:39:13.687Z,4.90
2019-03-30T03:41:42.195Z,4.90
2019-03-30T03:44:10.750Z,5.00
2019-03-30T03:46:39.185Z,5.10
2019-03-30T03:49:07.623Z,5.10
2019-03-30T03:51:36.402Z,5.20
2019-03-30T03:54:04.960Z,5.10
2019-03-30T03:56:35.651Z,5.10
2019-03-30T03:59:06.400Z,5.10
2019-03-30T04:01:35.814Z,5.10
2019-03-30T04:04:07.384Z,5.10
2019-03-30T04:06:39.168Z,5.00
2019-03-30T04:09:07.745Z,5.10
2019-03-30T04:11:39.498Z,5.10
2019-03-30T04:14:09.335Z,5.10
2019-03-30T04:16:37.767Z,5.00
2019-03-30T04:19:06.227Z,5.00
2019-03-30T04:21:43.679Z,4.90
2019-03-30T04:24:05.147Z,4.90
2019-03-30T04:29:01.857Z,4.90
2019-03-30T04:31:30.372Z,4.90
2019-03-30T04:33:58.808Z,4.90
2019-03-30T04:36:27.257Z,4.90
2019-03-30T04:38:55.787Z,4.80
2019-03-30T04:41:24.504Z,4.90
2019-03-30T04:43:52.970Z,4.80
2019-03-30T04:46:21.405Z,4.70
2019-03-30T04:48:50.192Z,4.70
2019-03-30T04:51:18.894Z,4.50
2019-03-30T04:53:47.331Z,4.50
2019-03-30T04:56:15.769Z,4.50
2019-03-30T04:58:44.218Z,4.40
2019-03-30T05:01:12.658Z,4.40
2019-03-30T05:03:41.312Z,4.40
2019-03-30T05:06:09.832Z,4.30
2019-03-30T05:08:38.288Z,4.30
2019-03-30T05:11:06.715Z,4.20
2019-03-30T05:13:35.178Z,4.30
2019-03-30T05:16:03.968Z,4.30
2019-03-30T05:18:32.754Z,4.30
2019-03-30T05:21:01.237Z,4.30
2019-03-30T05:23:29.676Z,4.30
2019-03-30T05:25:58.107Z,4.30
2019-03-30T05:28:26.794Z,4.30
2019-03-30T05:30:55.216Z,4.30
2019-03-30T05:33:23.648Z,4.30
2019-03-30T05:35:52.186Z,4.30
2019-03-30T05:38:20.619Z,4.30
2019-03-30T05:40:49.055Z,4.20
2019-03-30T05:43:17.757Z,4.20
2019-03-30T05:45:46.255Z,4.10
2019-03-30T05:48:14.695Z,4.10
2019-03-30T05:50:43.142Z,4.10
2019-03-30T05:53:11.577Z,4.20
2019-03-30T05:55:40.282Z,4.20
2019-03-30T05:58:08.815Z,4.20
2019-03-30T06:00:37.323Z,4.20
2019-03-30T06:03:05.754Z,4.40
2019-03-30T06:05:34.592Z,4.40
2019-03-30T06:08:03.021Z,4.50
2019-03-30T06:10:31.467Z,4.60
2019-03-30T06:12:59.954Z,4.60
2019-03-30T06:15:28.392Z,4.60
2019-03-30T06:17:56.822Z,4.70
2019-03-30T06:20:26.145Z,4.70
2019-03-30T06:22:54.584Z,4.80
2019-03-30T06:25:23.034Z,4.80
2019-03-30T06:27:51.627Z,4.90
2019-03-30T06:30:26.462Z,4.90
2019-03-30T06:32:55.541Z,5.00
2019-03-30T06:35:24.090Z,5.10
2019-03-30T06:37:52.600Z,5.10
2019-03-30T06:40:21.098Z,5.20
2019-03-30T06:42:49.616Z,5.30
2019-03-30T06:45:18.118Z,5.40
2019-03-30T06:47:46.549Z,5.50
2019-03-30T06:50:16.084Z,5.60
2019-03-30T06:52:56.982Z,5.60
2019-03-30T06:55:14.754Z,5.70
2019-03-30T06:57:43.279Z,5.80
2019-03-30T07:00:12.355Z,5.80
2019-03-30T07:02:41.960Z,5.70
2019-03-30T07:05:11.163Z,5.80
2019-03-30T07:07:41.903Z,5.80
2019-03-30T07:10:10.679Z,5.80
2019-03-30T07:12:40.881Z,5.90
2019-03-30T07:15:10.154Z,5.90
2019-03-30T07:17:41.677Z,6.00
2019-03-30T07:20:13.250Z,6.10
2019-03-30T07:22:41.691Z,6.10
2019-03-30T07:25:10.196Z,6.30
2019-03-30T07:27:38.665Z,6.30
2019-03-30T07:30:08.295Z,6.40
2019-03-30T07:32:36.735Z,6.40
2019-03-30T07:35:06.633Z,6.50
2019-03-30T07:37:35.071Z,6.60
2019-03-30T07:40:04.644Z,6.70
2019-03-30T07:42:33.202Z,6.90
2019-03-30T07:45:01.635Z,6.90
2019-03-30T07:47:30.066Z,7.00
2019-03-30T07:49:58.654Z,7.10
2019-03-30T07:52:27.401Z,7.10
2019-03-30T07:54:55.833Z,7.20
2019-03-30T07:57:24.308Z,7.20
2019-03-30T07:59:52.744Z,7.20
2019-03-30T08:02:21.298Z,7.30
2019-03-30T08:04:49.770Z,7.40
2019-03-30T08:07:18.222Z,7.40
2019-03-30T08:09:46.727Z,7.50
2019-03-30T08:12:15.216Z,7.50
2019-03-30T08:14:45.301Z,7.60
2019-03-30T08:17:13.991Z,7.70
2019-03-30T08:19:42.461Z,7.80
2019-03-30T08:22:11.052Z,7.90
2019-03-30T08:24:39.948Z,8.00
2019-03-30T08:27:08.519Z,8.10
2019-03-30T08:29:36.958Z,8.10
2019-03-30T08:32:05.463Z,8.20
2019-03-30T08:34:34.063Z,8.30
2019-03-30T08:37:02.497Z,8.40
2019-03-30T08:39:30.922Z,8.40
2019-03-30T08:41:59.511Z,8.50
2019-03-30T08:44:27.942Z,8.50
2019-03-30T08:46:56.638Z,8.60
2019-03-30T08:49:25.213Z,8.70
2019-03-30T08:51:53.707Z,8.80
2019-03-30T08:54:22.151Z,8.90
2019-03-30T08:56:50.611Z,8.90
2019-03-30T08:59:19.038Z,9.00
2019-03-30T09:58:25.168Z,10.70
2019-03-30T10:00:53.621Z,10.80
2019-03-30T10:03:22.106Z,11.00
2019-03-30T10:05:50.549Z,11.20
2019-03-30T10:08:19.004Z,11.30
2019-03-30T10:10:47.484Z,11.20
2019-03-30T10:13:15.927Z,11.30
2019-03-30T10:15:44.362Z,11.30
2019-03-30T10:18:13.046Z,11.40
2019-03-30T10:20:41.487Z,11.50
2019-03-30T10:23:09.926Z,11.60
2019-03-30T10:25:38.409Z,11.70
2019-03-30T10:28:06.916Z,11.80
2019-03-30T10:30:35.454Z,11.90
2019-03-30T10:33:03.909Z,12.10
2019-03-30T10:35:32.367Z,12.10
2019-03-30T10:38:00.871Z,12.20
2019-03-30T10:40:29.315Z,12.20
2019-03-30T10:42:57.749Z,12.30
2019-03-30T10:45:26.543Z,12.40
2019-03-30T10:47:55.001Z,12.40
2019-03-30T10:50:23.442Z,12.40
2019-03-30T10:52:51.882Z,12.50
2019-03-30T10:55:20.689Z,12.50
2019-03-30T10:57:49.124Z,12.60
2019-03-30T11:00:35.210Z,12.70
2019-03-30T11:03:04.137Z,12.70
2019-03-30T11:05:32.565Z,12.80
2019-03-30T11:08:01.224Z,13.00
2019-03-30T11:10:29.673Z,13.00
2019-03-30T11:12:58.404Z,13.00
2019-03-30T11:15:27.194Z,13.10
2019-03-30T11:17:55.642Z,13.20
2019-03-30T11:20:24.074Z,13.30
2019-03-30T11:22:52.599Z,13.40
2019-03-30T11:25:21.356Z,13.40
2019-03-30T11:27:49.799Z,13.50
2019-03-30T11:30:18.630Z,13.60
2019-03-30T11:32:47.087Z,13.60
2019-03-30T11:35:15.514Z,13.80
2019-03-30T11:37:44.004Z,13.80
2019-03-30T11:40:12.583Z,13.90
2019-03-30T11:42:41.026Z,13.90
2019-03-30T11:45:09.997Z,14.10
2019-03-30T11:47:38.431Z,14.10
2019-03-30T11:50:07.618Z,14.30
2019-03-30T11:52:36.096Z,14.40
2019-03-30T11:55:20.660Z,14.60
2019-03-30T11:57:36.839Z,14.70
2019-03-30T12:00:07.199Z,14.60
2019-03-30T12:02:35.638Z,14.70
2019-03-30T12:05:07.942Z,14.80
2019-03-30T12:07:36.402Z,14.90
2019-03-30T12:10:06.449Z,15.00
2019-03-30T12:12:37.305Z,15.10
2019-03-30T12:15:07.374Z,15.30
2019-03-30T12:17:35.898Z,15.30
2019-03-30T12:20:06.724Z,15.40
2019-03-30T12:22:35.208Z,15.40
2019-03-30T12:25:04.184Z,15.50
2019-03-30T12:27:32.615Z,15.60
2019-03-30T12:30:01.142Z,15.70
2019-03-30T12:32:29.579Z,15.80
2019-03-30T12:34:58.008Z,15.90
2019-03-30T12:37:26.756Z,16.10
2019-03-30T12:39:58.286Z,16.20
2019-03-30T12:42:25.905Z,16.30
2019-03-30T12:44:54.362Z,16.40
2019-03-30T12:47:22.799Z,16.50
2019-03-30T12:49:51.230Z,16.50
2019-03-30T12:52:19.862Z,16.60
2019-03-30T12:54:48.310Z,16.50
2019-03-30T12:57:16.831Z,16.40
2019-03-30T12:59:45.294Z,16.30
2019-03-30T13:02:13.727Z,16.20
2019-03-30T13:04:43.263Z,16.20
2019-03-30T13:07:11.906Z,16.20
2019-03-30T13:09:40.371Z,16.20
2019-03-30T13:12:08.966Z,16.10
2019-03-30T13:14:37.745Z,16.00
2019-03-30T13:17:06.236Z,16.00
2019-03-30T13:19:34.768Z,15.90
2019-03-30T13:22:03.234Z,15.90
2019-03-30T13:24:31.673Z,15.90
2019-03-30T13:27:00.170Z,16.00
2019-03-30T13:29:28.639Z,16.00
2019-03-30T13:31:57.071Z,16.10
2019-03-30T13:34:25.510Z,16.20
2019-03-30T13:36:54.790Z,16.20
2019-03-30T13:39:23.593Z,16.30
2019-03-30T13:41:52.037Z,16.30
2019-03-30T13:44:20.496Z,16.40
2019-03-30T13:46:49.358Z,16.50
2019-03-30T13:49:17.808Z,16.50
2019-03-30T13:51:46.262Z,16.50
2019-03-30T13:54:14.750Z,16.60
2019-03-30T13:56:43.612Z,16.90
2019-03-30T13:59:12.412Z,17.10
2019-03-30T14:01:40.842Z,17.40
2019-03-30T14:04:09.271Z,17.90
2019-03-30T14:06:38.986Z,18.80
2019-03-30T14:09:07.572Z,19.50
2019-03-30T14:11:36.055Z,20.10
2019-03-30T14:14:04.957Z,20.50
2019-03-30T14:16:33.378Z,21.00
2019-03-30T14:19:01.953Z,21.50
2019-03-30T14:21:30.919Z,21.70
2019-03-30T14:23:59.346Z,22.10
2019-03-30T14:26:31.523Z,22.20
2019-03-30T14:28:58.037Z,22.70
2019-03-30T14:31:26.477Z,22.80
2019-03-30T14:33:54.911Z,22.30
2019-03-30T14:36:23.525Z,22.70
2019-03-30T14:41:20.335Z,23.10
2019-03-30T14:43:48.812Z,23.10
2019-03-30T14:46:17.821Z,23.60
2019-03-30T14:48:46.336Z,23.90
2019-03-30T14:51:14.846Z,23.70
2019-03-30T14:53:43.279Z,23.60
2019-03-30T14:56:11.714Z,24.10
2019-03-30T14:58:40.229Z,24.60
2019-03-30T15:01:08.764Z,25.10
2019-03-30T15:03:37.202Z,25.40
2019-03-30T15:06:07.113Z,24.80
2019-03-30T15:08:35.824Z,24.40
2019-03-30T15:11:04.510Z,24.60
2019-03-30T15:13:32.967Z,24.50
2019-03-30T15:16:01.472Z,24.30
2019-03-30T15:18:29.932Z,24.40
2019-03-30T15:20:58.386Z,25.00
2019-03-30T15:23:27.347Z,24.90
2019-03-30T15:25:55.868Z,25.00
2019-03-30T15:28:24.325Z,24.80
2019-03-30T15:30:52.763Z,24.90
2019-03-30T15:33:21.194Z,25.00
2019-03-30T15:35:49.932Z,24.70
2019-03-30T15:38:18.358Z,24.90
2019-03-30T15:40:46.799Z,24.80
2019-03-30T15:43:15.281Z,24.50
2019-03-30T15:45:43.754Z,24.60
2019-03-30T15:48:12.260Z,24.90
2019-03-30T15:50:40.733Z,25.10
2019-03-30T15:53:09.166Z,25.30
2019-03-30T15:55:37.672Z,25.60
2019-03-30T15:58:06.148Z,24.20
2019-03-30T16:00:34.574Z,22.70
2019-03-30T16:03:03.095Z,21.70
2019-03-30T16:05:31.621Z,21.10
2019-03-30T16:08:00.119Z,20.90
2019-03-30T16:10:28.618Z,21.00
2019-03-30T16:12:57.080Z,21.30
2019-03-30T16:15:25.605Z,21.50
2019-03-30T16:17:54.039Z,21.80
2019-03-30T16:20:22.767Z,21.70
2019-03-30T16:22:51.204Z,21.60
2019-03-30T16:25:19.636Z,21.20
2019-03-30T16:27:48.147Z,21.00
2019-03-30T16:30:17.014Z,20.90
2019-03-30T16:32:45.523Z,20.90
2019-03-30T16:35:13.994Z,20.70
2019-03-30T16:37:42.428Z,20.30
2019-03-30T16:40:10.995Z,20.10
2019-03-30T16:42:39.437Z,20.00
2019-03-30T16:45:08.304Z,19.90
2019-03-30T16:47:36.735Z,19.90
2019-03-30T16:50:07.593Z,19.70
2019-03-30T16:52:36.018Z,19.60
2019-03-30T16:55:04.821Z,19.40
2019-03-30T16:57:43.265Z,19.50
2019-03-30T17:00:05.340Z,19.50
2019-03-30T17:02:33.849Z,19.60
2019-03-30T17:05:02.408Z,19.60
2019-03-30T17:07:30.835Z,19.20
2019-03-30T17:09:59.264Z,19.00
2019-03-30T17:12:28.155Z,18.70
2019-03-30T17:14:56.682Z,18.30
2019-03-30T17:17:25.115Z,18.00
2019-03-30T17:19:53.612Z,17.80
2019-03-30T17:22:22.040Z,17.50
2019-03-30T17:24:50.473Z,17.30
2019-03-30T17:27:18.930Z,17.10
2019-03-30T17:29:47.367Z,16.70
2019-03-30T17:32:15.878Z,16.60
2019-03-30T17:34:44.757Z,16.40
2019-03-30T17:37:14.648Z,16.20
2019-03-30T17:39:43.294Z,16.00
2019-03-30T17:42:11.994Z,15.90
2019-03-30T17:44:40.426Z,15.70
2019-03-30T17:47:08.858Z,15.50
2019-03-30T17:49:37.505Z,15.40
2019-03-30T17:52:05.947Z,15.20
2019-03-30T17:54:34.373Z,15.00
2019-03-30T17:57:02.907Z,15.00
2019-03-30T17:59:31.333Z,14.80
2019-03-30T18:01:59.770Z,14.70
2019-03-30T18:04:28.519Z,14.60
2019-03-30T18:06:57.038Z,14.50
2019-03-30T18:09:25.557Z,14.50
2019-03-30T18:11:54.122Z,14.40
2019-03-30T18:14:22.554Z,14.30
2019-03-30T18:16:50.990Z,14.30
2019-03-30T18:19:19.459Z,14.20
2019-03-30T18:21:47.896Z,14.10
2019-03-30T18:24:16.431Z,14.10
2019-03-30T18:26:45.200Z,13.90
2019-03-30T18:29:13.629Z,13.90
2019-03-30T18:31:42.495Z,13.80
2019-03-30T18:34:11.111Z,13.70
2019-03-30T18:36:40.856Z,13.60
2019-03-30T18:39:10.296Z,13.60
2019-03-30T18:41:38.941Z,13.50
2019-03-30T18:44:07.674Z,13.40
2019-03-30T18:46:36.112Z,13.30
2019-03-30T18:49:04.678Z,13.20
2019-03-30T18:51:33.110Z,13.20
2019-03-30T18:54:02.293Z,13.20
2019-03-30T18:56:31.111Z,13.10
2019-03-30T18:58:59.560Z,13.00
2019-03-30T19:01:27.995Z,13.00
2019-03-30T19:03:56.899Z,13.00
2019-03-30T19:06:25.340Z,12.90
2019-03-30T19:08:53.890Z,12.80
2019-03-30T19:11:22.363Z,12.80
2019-03-30T19:13:51.555Z,12.80
2019-03-30T19:16:20.122Z,12.70
2019-03-30T19:18:48.765Z,12.70
2019-03-30T19:21:17.202Z,12.60
2019-03-30T19:23:45.642Z,12.50
2019-03-30T19:26:14.106Z,12.40
2019-03-30T19:28:55.682Z,12.30
2019-03-30T19:31:12.702Z,12.20
2019-03-30T19:33:41.171Z,12.20
2019-03-30T19:36:10.196Z,12.10
2019-03-30T19:38:38.730Z,12.00
2019-03-30T19:41:07.975Z,11.90
2019-03-30T19:43:36.411Z,11.80
2019-03-30T19:46:05.025Z,11.70
2019-03-30T19:48:36.779Z,11.60
2019-03-30T19:51:03.650Z,11.60
2019-03-30T19:53:32.088Z,11.60
2019-03-30T19:56:00.637Z,11.60
2019-03-30T19:58:29.084Z,11.50
2019-03-30T20:00:57.591Z,11.50
2019-03-30T20:03:26.062Z,11.40
2019-03-30T20:05:54.503Z,11.30
2019-03-30T20:08:22.943Z,11.20
2019-03-30T20:10:51.462Z,11.10
2019-03-30T20:13:20.198Z,11.00
2019-03-30T20:15:48.916Z,11.00
2019-03-30T20:18:17.683Z,10.90
2019-03-30T20:20:46.190Z,10.80
2019-03-30T20:23:14.697Z,10.80
2019-03-30T20:25:43.175Z,10.80
2019-03-30T20:28:11.611Z,10.80
2019-03-30T20:30:40.051Z,10.80
2019-03-30T20:33:08.803Z,10.80
2019-03-30T20:35:37.306Z,10.80
2019-03-30T20:38:06.112Z,10.70
2019-03-30T20:40:34.810Z,10.70
2019-03-30T20:43:03.254Z,10.60
2019-03-30T20:45:31.703Z,10.70
2019-03-30T20:48:00.255Z,10.60
2019-03-30T20:50:28.711Z,10.50
2019-03-30T20:52:57.150Z,10.50
2019-03-30T20:55:25.726Z,10.40
2019-03-30T20:57:54.239Z,10.40
2019-03-30T21:00:22.679Z,10.30
2019-03-30T21:02:51.549Z,10.20
2019-03-30T21:05:20.035Z,10.20
2019-03-30T21:07:48.502Z,10.10
2019-03-30T21:10:17.212Z,10.10
2019-03-30T21:12:45.652Z,10.10
2019-03-30T21:15:14.327Z,10.10
2019-03-30T21:17:42.823Z,10.10
2019-03-30T21:20:11.537Z,10.10
2019-03-30T21:22:39.973Z,10.00
2019-03-30T21:25:08.575Z,10.00
2019-03-30T21:27:37.045Z,9.90
2019-03-30T21:30:08.427Z,9.80
2019-03-30T21:32:37.098Z,9.80
2019-03-30T21:35:07.176Z,9.70
2019-03-30T21:37:35.618Z,9.70
2019-03-30T21:40:05.815Z,9.70
2019-03-30T21:42:34.349Z,9.70
2019-03-30T21:45:02.899Z,9.60
2019-03-30T21:47:31.646Z,9.60
2019-03-30T21:50:00.537Z,9.50
2019-03-30T21:52:29.061Z,9.50
2019-03-30T21:54:58.143Z,9.50
2019-03-30T21:57:27.030Z,9.50
2019-03-30T22:00:09.093Z,9.40
2019-03-30T22:02:25.882Z,9.40
2019-03-30T22:04:54.815Z,9.30
2019-03-30T22:07:23.252Z,9.30
2019-03-30T22:09:52.106Z,9.30
2019-03-30T22:12:20.717Z,9.30
2019-03-30T22:14:49.150Z,9.40
2019-03-30T22:17:17.852Z,9.40
2019-03-30T22:19:46.330Z,9.30
2019-03-30T22:22:15.078Z,9.30
2019-03-30T22:24:43.732Z,9.20
2019-03-30T22:27:12.274Z,9.30
2019-03-30T22:29:40.844Z,9.20
2019-03-30T22:32:09.399Z,9.30
2019-03-30T22:34:37.918Z,9.20
2019-03-30T22:37:06.660Z,9.20
2019-03-30T22:39:35.414Z,9.20
2019-03-30T22:42:03.923Z,9.20
2019-03-30T22:44:32.354Z,9.20
2019-03-30T22:47:00.837Z,9.10
2019-03-30T22:49:29.619Z,9.00
2019-03-30T22:51:58.068Z,9.00
2019-03-30T22:54:26.526Z,8.90
2019-03-30T22:56:54.966Z,8.80
2019-03-30T22:59:23.404Z,8.70
2019-03-30T23:01:51.892Z,8.70
2019-03-30T23:04:20.395Z,8.70
2019-03-30T23:06:48.840Z,8.70
2019-03-30T23:09:17.302Z,8.70
2019-03-30T23:11:45.739Z,8.70
2019-03-30T23:14:14.177Z,8.70
2019-03-30T23:16:42.643Z,8.60
2019-03-30T23:19:11.068Z,8.60
2019-03-30T23:21:39.551Z,8.50
2019-03-30T23:24:08.267Z,8.60
2019-03-30T23:26:37.627Z,8.50
2019-03-30T23:29:06.065Z,8.40
2019-03-30T23:31:34.505Z,8.30
2019-03-30T23:34:02.958Z,8.30
2019-03-30T23:36:31.381Z,8.30
2019-03-30T23:38:59.859Z,8.20
2019-03-30T23:41:28.362Z,8.20
2019-03-30T23:43:56.801Z,8.20
2019-03-30T23:46:26.419Z,8.10
2019-03-30T23:48:54.859Z,8.10
2019-03-30T23:51:23.368Z,8.00
2019-03-30T23:53:51.858Z,8.10
2019-03-30T23:56:21.439Z,8.10
2019-03-30T23:58:50.737Z,8.10
